Terminal Aerodrome Forecast
Issued by NWS Sioux Falls, SD

Home | Current Version | Previous Version | Graphics & Text | Print | Product List | Glossary On
Versions: 1 2 3 4 5 6 7 8 9 10 11 12 13 14 15 16 17 18
000
FTUS43 KFSD 251134
TAFFSD
TAF
KFSD 251134Z 2512/2612 08013KT 1SM -SN SCT008 OVC018
      TEMPO 2512/2514 1/2SM SN OVC008
     FM251400 05015G22KT 2SM -SN OVC012
     FM251700 02016G24KT 5SM -SN OVC018
     FM252100 35015G22KT P6SM BKN020 BKN070
     FM260600 34012KT P6SM SCT020=

USA.gov is the U.S. government's official web portal to all federal, state and local government web resources and services.